createdAt,value
2023-11-17T00:00:07.909Z,43.08
2023-11-17T00:02:37.583Z,43.12
2023-11-17T00:05:06.193Z,43.20
2023-11-17T00:07:33.975Z,43.25
2023-11-17T00:10:02.157Z,43.13
2023-11-17T00:12:29.907Z,43.21
2023-11-17T00:14:57.781Z,43.17
2023-11-17T00:17:25.972Z,43.15
2023-11-17T00:19:53.615Z,43.25
2023-11-17T00:22:21.971Z,43.24
2023-11-17T00:24:49.892Z,43.31
2023-11-17T00:27:18.339Z,43.47
2023-11-17T00:29:46.295Z,43.59
2023-11-17T00:32:13.957Z,43.66
2023-11-17T00:34:41.786Z,43.57
2023-11-17T00:37:11.562Z,43.38
2023-11-17T00:39:39.526Z,43.40
2023-11-17T00:42:09.837Z,43.25
2023-11-17T00:44:37.591Z,43.14
2023-11-17T00:47:06.510Z,43.13
2023-11-17T00:49:35.604Z,43.19
2023-11-17T00:52:06.882Z,43.06
2023-11-17T00:54:44.105Z,42.99
2023-11-17T00:57:12.877Z,42.87
2023-11-17T00:59:40.680Z,42.76
2023-11-17T01:02:08.481Z,42.71
2023-11-17T01:04:36.167Z,42.68
2023-11-17T01:07:04.013Z,42.84
2023-11-17T01:09:31.729Z,42.74
2023-11-17T01:11:59.476Z,42.77
2023-11-17T01:14:27.468Z,42.88
2023-11-17T01:16:55.238Z,42.95
2023-11-17T01:19:23.436Z,43.13
2023-11-17T01:21:51.192Z,43.24
2023-11-17T01:24:19.645Z,43.25
2023-11-17T01:26:48.227Z,43.42
2023-11-17T01:29:15.869Z,43.39
2023-11-17T01:31:43.619Z,43.45
2023-11-17T01:34:11.341Z,43.59
2023-11-17T01:36:39.184Z,43.68
2023-11-17T01:39:09.694Z,43.79
2023-11-17T01:41:37.556Z,43.63
2023-11-17T01:44:05.452Z,43.54
2023-11-17T01:46:33.288Z,43.47
2023-11-17T01:49:01.271Z,43.56
2023-11-17T01:51:28.925Z,43.51
2023-11-17T01:53:56.587Z,43.39
2023-11-17T01:56:25.639Z,43.55
2023-11-17T01:58:53.248Z,43.60
2023-11-17T02:01:21.369Z,43.76
2023-11-17T02:03:49.966Z,43.69
2023-11-17T02:06:31.286Z,43.71
2023-11-17T02:09:26.174Z,43.86
2023-11-17T02:12:20.254Z,43.60
2023-11-17T02:14:48.849Z,43.65
2023-11-17T02:17:17.188Z,43.67
2023-11-17T02:19:45.283Z,43.70
2023-11-17T02:22:15.829Z,43.70
2023-11-17T02:24:58.667Z,43.76
2023-11-17T02:27:38.898Z,43.88
2023-11-17T02:30:07.218Z,43.92
2023-11-17T02:32:40.218Z,44.07
2023-11-17T02:35:09.953Z,44.22
2023-11-17T02:37:40.168Z,44.24
2023-11-17T02:40:20.415Z,44.40
2023-11-17T02:42:52.903Z,44.36
2023-11-17T02:45:26.902Z,44.42
2023-11-17T02:47:57.709Z,44.32
2023-11-17T02:50:40.465Z,44.19
2023-11-17T02:53:19.033Z,44.29
2023-11-17T02:55:47.063Z,44.24
2023-11-17T02:58:16.910Z,44.24
2023-11-17T03:00:45.357Z,44.32
2023-11-17T03:03:13.056Z,44.17
2023-11-17T03:05:40.869Z,44.27
2023-11-17T03:08:08.960Z,44.13
2023-11-17T03:10:38.201Z,44.07
2023-11-17T03:13:05.820Z,44.06
2023-11-17T03:15:33.566Z,44.06
2023-11-17T03:18:01.508Z,44.04
2023-11-17T03:20:29.499Z,44.11
2023-11-17T03:23:01.840Z,44.15
2023-11-17T03:25:30.434Z,44.23
2023-11-17T03:27:58.241Z,44.43
2023-11-17T03:30:26.198Z,44.32
2023-11-17T03:32:56.866Z,44.38
2023-11-17T03:35:25.113Z,44.46
2023-11-17T03:37:53.379Z,44.50
2023-11-17T03:40:21.104Z,44.58
2023-11-17T03:42:48.924Z,44.52
2023-11-17T03:45:17.109Z,44.47
2023-11-17T03:47:46.771Z,44.41
2023-11-17T03:50:15.548Z,44.41
2023-11-17T03:52:43.459Z,44.42
2023-11-17T03:55:13.001Z,44.43
2023-11-17T03:57:41.019Z,44.68
2023-11-17T04:00:11.646Z,44.49
2023-11-17T04:02:42.201Z,44.58
2023-11-17T04:05:15.042Z,44.67
2023-11-17T04:07:46.396Z,44.93
2023-11-17T04:10:14.316Z,45.22
2023-11-17T04:12:42.021Z,45.12
2023-11-17T04:15:13.941Z,45.30
2023-11-17T04:17:43.263Z,45.50
2023-11-17T04:20:16.142Z,45.72
2023-11-17T04:22:44.076Z,45.94
2023-11-17T04:25:11.897Z,46.14
2023-11-17T04:27:39.763Z,46.40
2023-11-17T04:30:08.768Z,46.64
2023-11-17T04:32:36.830Z,46.70
2023-11-17T04:35:05.318Z,46.73
2023-11-17T04:37:33.023Z,46.72
2023-11-17T04:40:03.258Z,46.76
2023-11-17T04:42:31.500Z,46.66
2023-11-17T04:44:59.465Z,46.05
2023-11-17T04:47:27.337Z,45.79
2023-11-17T04:49:55.075Z,45.70
2023-11-17T04:52:22.894Z,45.40
2023-11-17T04:54:50.467Z,45.12
2023-11-17T04:57:18.879Z,44.82
2023-11-17T04:59:50.975Z,44.59
2023-11-17T05:02:18.763Z,44.52
2023-11-17T05:04:46.500Z,44.33
2023-11-17T05:07:14.079Z,44.13
2023-11-17T05:09:43.810Z,44.20
2023-11-17T05:12:12.211Z,44.14
2023-11-17T05:14:39.884Z,44.21
2023-11-17T05:17:11.062Z,44.31
2023-11-17T05:19:38.829Z,44.38
2023-11-17T05:22:08.348Z,44.32
2023-11-17T05:24:36.360Z,44.12
2023-11-17T05:27:04.122Z,44.05
2023-11-17T05:29:31.785Z,43.87
2023-11-17T05:31:59.506Z,43.66
2023-11-17T05:34:27.365Z,43.86
2023-11-17T05:36:55.498Z,44.04
2023-11-17T05:39:23.142Z,44.12
2023-11-17T05:41:50.803Z,44.28
2023-11-17T05:44:18.463Z,44.39
2023-11-17T05:46:46.379Z,44.47
2023-11-17T05:49:14.480Z,44.49
2023-11-17T05:51:42.268Z,44.49
2023-11-17T05:54:09.929Z,44.55
2023-11-17T05:56:37.599Z,44.38
2023-11-17T05:59:11.108Z,44.30
2023-11-17T06:01:42.480Z,44.32
2023-11-17T06:04:13.320Z,44.22
2023-11-17T06:06:41.137Z,44.25
2023-11-17T06:09:09.116Z,44.22
2023-11-17T06:11:41.503Z,44.31
2023-11-17T06:14:09.569Z,44.34
2023-11-17T06:16:37.332Z,44.47
2023-11-17T06:19:05.151Z,44.57
2023-11-17T06:21:33.783Z,44.80
2023-11-17T06:24:01.528Z,45.01
2023-11-17T06:26:32.113Z,45.06
2023-11-17T06:29:02.722Z,45.08
2023-11-17T06:31:30.956Z,45.12
2023-11-17T06:33:58.849Z,45.19
2023-11-17T06:36:27.103Z,45.33
2023-11-17T06:38:54.967Z,45.48
2023-11-17T06:41:22.625Z,45.61
2023-11-17T06:43:55.833Z,44.88
2023-11-17T06:46:25.757Z,44.01
2023-11-17T06:48:53.572Z,43.53
2023-11-17T06:51:21.490Z,43.18
2023-11-17T06:53:52.616Z,42.94
2023-11-17T06:56:20.508Z,42.56
2023-11-17T06:58:48.245Z,41.97
2023-11-17T07:01:16.476Z,41.63
2023-11-17T07:03:44.512Z,41.43
2023-11-17T07:06:18.488Z,41.29
2023-11-17T07:08:46.156Z,41.19
2023-11-17T07:11:16.885Z,41.16
2023-11-17T07:13:46.814Z,41.24
2023-11-17T07:16:16.842Z,41.24
2023-11-17T07:18:44.755Z,41.21
2023-11-17T07:21:12.532Z,41.29
2023-11-17T07:23:45.227Z,41.31
2023-11-17T07:26:22.214Z,41.27
2023-11-17T07:28:52.110Z,41.38
2023-11-17T07:31:20.225Z,41.44
2023-11-17T07:33:48.408Z,41.43
2023-11-17T07:36:20.024Z,41.58
2023-11-17T07:38:53.310Z,41.75
2023-11-17T07:41:21.185Z,41.86
2023-11-17T07:43:48.842Z,42.07
2023-11-17T07:46:16.681Z,42.29
2023-11-17T07:48:53.954Z,42.44
2023-11-17T07:51:24.726Z,42.59
2023-11-17T07:53:53.411Z,42.86
2023-11-17T07:56:21.278Z,42.84
2023-11-17T07:58:50.478Z,42.63
2023-11-17T08:01:19.942Z,42.44
2023-11-17T08:03:47.909Z,42.28
2023-11-17T08:06:15.708Z,42.29
2023-11-17T08:08:43.372Z,42.36
2023-11-17T08:11:11.032Z,42.44
2023-11-17T08:13:43.457Z,42.48
2023-11-17T08:16:11.881Z,42.45
2023-11-17T08:18:39.927Z,42.52
2023-11-17T08:21:08.450Z,42.56
2023-11-17T08:23:36.822Z,42.59
2023-11-17T08:26:05.544Z,42.75
2023-11-17T08:28:34.282Z,42.86
2023-11-17T08:31:04.428Z,42.85
2023-11-17T08:33:33.004Z,43.00
2023-11-17T08:36:00.667Z,43.04
2023-11-17T08:38:28.749Z,43.06
2023-11-17T08:40:56.687Z,42.95
2023-11-17T08:43:26.459Z,43.23
2023-11-17T08:45:54.482Z,43.53
2023-11-17T08:48:22.669Z,43.63
2023-11-17T08:50:50.308Z,43.56
2023-11-17T08:53:18.375Z,43.49
2023-11-17T08:55:46.107Z,43.25
2023-11-17T08:58:15.080Z,42.99
2023-11-17T09:00:42.905Z,43.17
2023-11-17T09:03:11.024Z,43.27
2023-11-17T09:05:39.403Z,43.33
2023-11-17T09:08:08.655Z,43.36
2023-11-17T09:10:36.484Z,43.48
2023-11-17T09:13:06.638Z,43.48
2023-11-17T09:15:34.898Z,43.58
2023-11-17T09:18:02.808Z,43.56
2023-11-17T09:20:30.843Z,43.37
2023-11-17T09:22:58.509Z,43.41
2023-11-17T09:25:26.512Z,43.46
2023-11-17T09:27:55.579Z,43.47
2023-11-17T09:30:24.040Z,43.82
2023-11-17T09:32:56.978Z,43.89
2023-11-17T09:35:29.425Z,44.06
2023-11-17T09:38:02.527Z,44.15
2023-11-17T09:40:35.218Z,43.98
2023-11-17T09:43:11.692Z,43.51
2023-11-17T09:45:40.730Z,43.23
2023-11-17T09:48:08.870Z,43.17
2023-11-17T09:50:36.789Z,43.28
2023-11-17T09:53:04.435Z,42.85
2023-11-17T09:55:32.742Z,42.66
2023-11-17T09:58:04.863Z,42.46
2023-11-17T10:00:38.633Z,42.15
2023-11-17T10:03:06.918Z,42.04
2023-11-17T10:05:35.192Z,42.06
2023-11-17T10:11:26.897Z,41.70
2023-11-17T10:13:54.741Z,41.42
2023-11-17T10:16:23.162Z,41.01
2023-11-17T10:18:51.193Z,40.93
2023-11-17T10:21:20.662Z,41.15
2023-11-17T10:23:48.967Z,41.13
2023-11-17T10:26:17.900Z,41.00
2023-11-17T10:28:45.755Z,41.03
2023-11-17T10:31:13.410Z,40.93
2023-11-17T10:33:47.519Z,40.80
2023-11-17T10:36:17.871Z,40.77
2023-11-17T10:38:47.526Z,40.70
2023-11-17T10:41:18.881Z,40.87
2023-11-17T10:43:54.324Z,40.76
2023-11-17T10:46:23.962Z,40.67
2023-11-17T10:48:53.048Z,40.78
2023-11-17T10:51:23.029Z,40.72
2023-11-17T10:54:18.269Z,40.44
2023-11-17T10:56:47.147Z,40.61
2023-11-17T10:59:17.843Z,40.83
2023-11-17T11:01:46.608Z,40.90
2023-11-17T11:04:20.973Z,40.82
2023-11-17T11:06:48.878Z,41.00
2023-11-17T11:09:20.207Z,40.94
2023-11-17T11:11:52.161Z,41.05
2023-11-17T11:14:22.046Z,41.25
2023-11-17T11:16:50.586Z,41.26
2023-11-17T11:19:24.444Z,41.24
2023-11-17T11:22:02.810Z,41.41
2023-11-17T11:24:38.508Z,41.46
2023-11-17T11:27:07.967Z,41.70
2023-11-17T11:29:40.767Z,41.76
2023-11-17T11:32:10.017Z,41.79
2023-11-17T11:34:38.438Z,41.79
2023-11-17T11:37:06.194Z,41.87
2023-11-17T11:39:33.918Z,41.85
2023-11-17T11:42:02.069Z,41.94
2023-11-17T11:44:29.759Z,41.78
2023-11-17T11:46:57.591Z,41.97
2023-11-17T11:49:25.377Z,42.19
2023-11-17T11:51:56.961Z,42.27
2023-11-17T11:54:25.213Z,42.45
2023-11-17T11:56:52.887Z,42.39
2023-11-17T11:59:20.621Z,42.44
2023-11-17T12:01:49.268Z,42.63
2023-11-17T12:04:20.630Z,42.80
2023-11-17T12:06:51.340Z,42.77
2023-11-17T12:09:22.522Z,42.91
2023-11-17T12:11:51.821Z,42.85
2023-11-17T12:14:27.766Z,42.99
2023-11-17T12:16:57.135Z,43.12
2023-11-17T12:19:32.223Z,43.17
2023-11-17T12:22:04.470Z,43.39
2023-11-17T12:24:36.592Z,43.73
2023-11-17T12:27:07.112Z,43.75
2023-11-17T12:29:38.060Z,43.60
2023-11-17T12:32:07.886Z,43.59
2023-11-17T12:34:46.565Z,43.87
2023-11-17T12:37:16.437Z,44.09
2023-11-17T12:39:46.447Z,44.22
2023-11-17T12:42:21.504Z,44.05
2023-11-17T12:44:49.427Z,44.14
2023-11-17T12:47:25.976Z,44.20
2023-11-17T12:50:00.899Z,44.36
2023-11-17T12:52:28.902Z,44.44
2023-11-17T12:55:04.482Z,44.36
2023-11-17T12:57:32.374Z,44.37
2023-11-17T13:00:00.796Z,44.60
2023-11-17T13:02:28.563Z,44.72
2023-11-17T13:04:56.335Z,44.33
2023-11-17T13:07:24.189Z,44.43
2023-11-17T13:09:52.009Z,44.50
2023-11-17T13:12:19.671Z,44.48
2023-11-17T13:14:47.426Z,44.52
2023-11-17T13:17:20.150Z,44.49
2023-11-17T13:19:48.102Z,44.44
2023-11-17T13:22:15.871Z,44.51
2023-11-17T13:24:44.319Z,44.76
2023-11-17T13:27:13.768Z,44.70
2023-11-17T13:29:42.218Z,44.71
2023-11-17T13:32:14.017Z,44.67
2023-11-17T13:34:42.812Z,44.70
2023-11-17T13:37:13.107Z,45.07
2023-11-17T13:39:42.329Z,45.03
2023-11-17T13:42:12.284Z,45.14
2023-11-17T13:44:42.332Z,45.20
2023-11-17T13:47:10.242Z,45.58
2023-11-17T13:49:40.479Z,45.52
2023-11-17T13:52:11.599Z,45.40
2023-11-17T13:54:40.408Z,45.54
2023-11-17T13:57:09.658Z,45.66
2023-11-17T13:59:38.611Z,45.28
2023-11-17T14:02:10.824Z,45.39
2023-11-17T14:04:39.617Z,45.52
2023-11-17T14:07:08.526Z,45.77
2023-11-17T14:09:36.361Z,45.81
2023-11-17T14:12:05.633Z,45.54
2023-11-17T14:14:33.654Z,45.86
2023-11-17T14:17:06.886Z,45.84
2023-11-17T14:19:36.678Z,45.80
2023-11-17T14:22:05.686Z,45.89
2023-11-17T14:24:33.557Z,45.82
2023-11-17T14:27:01.253Z,46.01
2023-11-17T14:29:32.766Z,45.85
2023-11-17T14:32:00.765Z,45.67
2023-11-17T14:34:30.555Z,45.69
2023-11-17T14:37:01.186Z,45.94
2023-11-17T14:39:33.480Z,45.87
2023-11-17T14:42:01.496Z,45.85
2023-11-17T14:44:30.409Z,45.79
2023-11-17T14:46:58.526Z,45.93
2023-11-17T14:49:30.572Z,45.74
2023-11-17T14:52:04.938Z,45.73
2023-11-17T14:54:33.044Z,45.69
2023-11-17T14:57:00.911Z,45.77
2023-11-17T14:59:28.789Z,46.07
2023-11-17T15:01:56.862Z,46.03
2023-11-17T15:04:24.646Z,46.15
2023-11-17T15:06:55.683Z,45.98
2023-11-17T15:09:23.405Z,46.23
2023-11-17T15:11:55.436Z,46.53
2023-11-17T15:14:23.446Z,46.59
2023-11-17T15:16:53.514Z,46.46
2023-11-17T15:19:23.682Z,46.85
2023-11-17T15:21:51.646Z,46.74
2023-11-17T15:24:23.819Z,46.70
2023-11-17T15:26:53.721Z,46.78
2023-11-17T15:29:23.603Z,46.89
2023-11-17T15:31:54.232Z,47.01
2023-11-17T15:34:23.084Z,47.08
2023-11-17T15:36:54.904Z,47.29
2023-11-17T15:39:28.447Z,47.52
2023-11-17T15:41:56.181Z,47.57
2023-11-17T15:44:24.942Z,47.23
2023-11-17T15:46:53.001Z,47.52
2023-11-17T15:49:21.123Z,47.56
2023-11-17T15:51:49.390Z,47.60
2023-11-17T15:54:18.187Z,47.69
2023-11-17T15:56:47.890Z,47.64
2023-11-17T15:59:15.848Z,47.74
2023-11-17T16:01:45.606Z,47.96
2023-11-17T16:04:13.627Z,48.02
2023-11-17T16:06:41.500Z,48.13
2023-11-17T16:09:11.676Z,48.28
2023-11-17T16:11:42.085Z,48.18
2023-11-17T16:14:14.516Z,48.42
2023-11-17T16:16:43.437Z,48.55
2023-11-17T16:19:11.799Z,48.65
2023-11-17T16:21:40.116Z,48.69
2023-11-17T16:24:08.573Z,48.64
2023-11-17T16:26:37.327Z,48.87
2023-11-17T16:29:07.463Z,48.72
2023-11-17T16:31:39.361Z,48.74
2023-11-17T16:34:07.686Z,48.77
2023-11-17T16:36:47.153Z,48.83
2023-11-17T16:39:20.390Z,48.78
2023-11-17T16:41:49.665Z,48.83
2023-11-17T16:44:17.474Z,48.70
2023-11-17T16:46:49.699Z,48.62
2023-11-17T16:49:20.516Z,48.88
2023-11-17T16:51:49.518Z,48.91
2023-11-17T16:54:20.306Z,49.16
2023-11-17T16:56:47.983Z,49.27
2023-11-17T16:59:15.732Z,49.30
2023-11-17T17:01:43.561Z,49.14
2023-11-17T17:04:12.443Z,48.97
2023-11-17T17:06:43.830Z,48.97
2023-11-17T17:09:15.755Z,48.80
2023-11-17T17:11:46.810Z,48.84
2023-11-17T17:14:20.308Z,48.69
2023-11-17T17:16:53.498Z,48.56
2023-11-17T17:19:27.794Z,48.68
2023-11-17T17:21:55.814Z,48.55
2023-11-17T17:24:25.467Z,48.49
2023-11-17T17:26:54.432Z,48.38
2023-11-17T17:29:22.251Z,48.36
2023-11-17T17:31:50.065Z,48.11
2023-11-17T17:34:19.023Z,48.15
2023-11-17T17:36:50.388Z,48.65
2023-11-17T17:39:18.308Z,48.48
2023-11-17T17:41:49.427Z,48.28
2023-11-17T17:44:20.263Z,48.19
2023-11-17T17:46:49.450Z,48.07
2023-11-17T17:49:18.203Z,47.78
2023-11-17T17:51:46.110Z,48.10
2023-11-17T17:54:15.779Z,47.95
2023-11-17T17:56:43.440Z,48.33
2023-11-17T17:59:11.119Z,48.20
2023-11-17T18:01:39.598Z,47.89
2023-11-17T18:04:10.035Z,47.78
2023-11-17T18:06:37.990Z,47.73
2023-11-17T18:09:07.174Z,47.98
2023-11-17T18:11:36.288Z,48.26
2023-11-17T18:14:04.033Z,48.44
2023-11-17T18:16:31.867Z,48.35
2023-11-17T18:18:59.871Z,48.20
2023-11-17T18:21:28.865Z,48.14
2023-11-17T18:23:56.528Z,47.86
2023-11-17T18:26:26.824Z,47.82
2023-11-17T18:28:55.143Z,48.01
2023-11-17T18:31:22.905Z,48.11
2023-11-17T18:33:51.093Z,48.05
2023-11-17T18:36:19.474Z,48.27
2023-11-17T18:38:47.309Z,48.36
2023-11-17T18:41:15.027Z,48.36
2023-11-17T18:43:42.782Z,48.27
2023-11-17T18:46:11.373Z,48.31
2023-11-17T18:48:41.348Z,48.50
2023-11-17T18:51:09.607Z,48.61
2023-11-17T18:53:37.383Z,48.63
2023-11-17T18:56:06.860Z,48.70
2023-11-17T18:58:35.271Z,48.74
2023-11-17T19:01:05.411Z,48.80
2023-11-17T19:03:33.334Z,48.93
2023-11-17T19:06:01.226Z,49.10
2023-11-17T19:08:28.902Z,48.93
2023-11-17T19:10:57.128Z,48.89
2023-11-17T19:13:30.779Z,48.72
2023-11-17T19:15:59.862Z,49.04
2023-11-17T19:18:27.713Z,49.20
2023-11-17T19:20:57.140Z,49.21
2023-11-17T19:23:28.253Z,49.52
2023-11-17T19:25:58.252Z,49.45
2023-11-17T19:28:26.167Z,49.42
2023-11-17T19:30:55.107Z,49.47
2023-11-17T19:33:25.355Z,49.43
2023-11-17T19:36:01.272Z,48.94
2023-11-17T19:38:35.313Z,48.57
2023-11-17T19:41:03.688Z,48.24
2023-11-17T19:43:31.613Z,48.34
2023-11-17T19:45:59.437Z,48.47
2023-11-17T19:48:27.083Z,48.19
2023-11-17T19:50:55.475Z,48.10
2023-11-17T19:53:23.531Z,48.01
2023-11-17T19:55:56.614Z,47.98
2023-11-17T19:58:26.130Z,47.69
2023-11-17T20:00:53.938Z,47.94
2023-11-17T20:03:21.839Z,48.10
2023-11-17T20:05:50.336Z,47.60
2023-11-17T20:08:18.201Z,47.61
2023-11-17T20:10:46.979Z,47.60
2023-11-17T20:13:15.381Z,47.43
2023-11-17T20:15:44.584Z,47.80
2023-11-17T20:18:12.494Z,47.59
2023-11-17T20:20:40.724Z,47.74
2023-11-17T20:23:08.384Z,47.82
2023-11-17T20:25:36.172Z,47.81
2023-11-17T20:28:04.000Z,47.85
2023-11-17T20:30:31.770Z,48.09
2023-11-17T20:33:00.431Z,48.58
2023-11-17T20:35:29.740Z,49.02
2023-11-17T20:37:58.428Z,49.53
2023-11-17T20:40:26.350Z,49.59
2023-11-17T20:42:54.313Z,49.81
2023-11-17T20:45:23.198Z,49.73
2023-11-17T20:47:51.508Z,49.89
2023-11-17T20:50:26.718Z,50.08
2023-11-17T20:52:54.916Z,50.42
2023-11-17T20:55:23.634Z,50.41
2023-11-17T20:57:52.711Z,50.41
2023-11-17T21:00:23.662Z,50.24
2023-11-17T21:02:52.989Z,49.91
2023-11-17T21:05:22.305Z,49.62
2023-11-17T21:07:52.691Z,49.26
2023-11-17T21:10:23.695Z,49.39
2023-11-17T21:12:53.714Z,49.40
2023-11-17T21:15:22.862Z,49.49
2023-11-17T21:17:52.835Z,49.16
2023-11-17T21:20:22.060Z,48.97
2023-11-17T21:22:51.048Z,48.69
2023-11-17T21:25:20.168Z,48.46
2023-11-17T21:27:50.390Z,48.59
2023-11-17T21:30:19.582Z,48.56
2023-11-17T21:32:50.503Z,48.99
2023-11-17T21:35:19.713Z,49.16
2023-11-17T21:37:56.871Z,48.98
2023-11-17T21:40:26.033Z,48.89
2023-11-17T21:42:53.985Z,49.13
2023-11-17T21:45:23.549Z,49.15
2023-11-17T21:47:53.169Z,49.45
2023-11-17T21:50:24.753Z,49.22
2023-11-17T21:52:52.650Z,49.57
2023-11-17T21:55:20.491Z,49.58
2023-11-17T21:57:48.275Z,49.66
2023-11-17T22:00:18.714Z,49.47
2023-11-17T22:02:48.345Z,49.46
2023-11-17T22:05:17.899Z,49.27
2023-11-17T22:07:46.099Z,49.18
2023-11-17T22:10:13.888Z,49.23
2023-11-17T22:12:49.396Z,49.34
2023-11-17T22:15:21.068Z,49.70
2023-11-17T22:17:49.495Z,50.00
2023-11-17T22:20:20.603Z,49.95
2023-11-17T22:22:53.734Z,49.88
2023-11-17T22:25:22.919Z,49.67
2023-11-17T22:27:52.041Z,49.35
2023-11-17T22:30:25.987Z,49.57
2023-11-17T22:32:55.984Z,49.64
2023-11-17T22:35:24.607Z,49.63
2023-11-17T22:37:54.944Z,49.27
2023-11-17T22:40:24.359Z,49.36
2023-11-17T22:42:53.412Z,49.42
2023-11-17T22:45:23.552Z,49.37
2023-11-17T22:47:52.121Z,49.14
2023-11-17T22:50:20.349Z,49.24
2023-11-17T22:52:51.330Z,48.88
2023-11-17T22:55:21.623Z,48.94
2023-11-17T22:57:50.582Z,49.06
2023-11-17T23:00:42.203Z,49.37
2023-11-17T23:03:11.123Z,49.31
2023-11-17T23:05:43.496Z,49.46
2023-11-17T23:08:13.752Z,49.55
2023-11-17T23:10:42.871Z,49.95
2023-11-17T23:13:13.237Z,49.96
2023-11-17T23:15:41.361Z,49.89
2023-11-17T23:18:11.305Z,49.77
2023-11-17T23:20:39.142Z,49.91
2023-11-17T23:23:06.849Z,49.99
2023-11-17T23:25:38.322Z,49.99
2023-11-17T23:28:09.500Z,50.06
2023-11-17T23:30:37.246Z,49.94
2023-11-17T23:33:09.436Z,50.22
2023-11-17T23:35:37.759Z,50.18
2023-11-17T23:38:06.047Z,50.08
2023-11-17T23:40:33.824Z,50.20
2023-11-17T23:43:02.221Z,50.41
2023-11-17T23:45:31.002Z,50.22
2023-11-17T23:47:58.875Z,50.18
2023-11-17T23:50:26.859Z,50.26
2023-11-17T23:52:54.740Z,49.92
2023-11-17T23:55:22.528Z,50.04
2023-11-17T23:57:50.335Z,50.04
